Gravette, AR (72736)

5:07 PM CDT on August 29, 2015 (GMT -0500)
Gravette Westside | | Change Station
CLOSE
Current Station
Personal Weather Station
Location: Gravette, AR
Elevation: 1220 ft
Nearby Weather Stations

Elev 1220 ft 36.42 °N, 94.46 °W | Updated 3 seconds ago

Partly Cloudy
Partly Cloudy
85.1 °F
Feels Like 90 °F
N
2.2
Wind Variable Wind from West
Gusts 2.9 mph

Today
High -- | Low -- °F
--% Chance of Precip.
Yesterday
High -- | Low -- °F
Precip. -- in
6:46 AM 7:50 PM
Full, 100% visible
Pressure 29.93 in
Visibility 10.0 miles
Clouds Scattered Clouds 4600 ft
Heat Index 90 °F
Dew Point 71 °F
Humidity 63%
Rainfall 0.00 in
Snow Depth Not available.
UV 3 out of 12
Pollen 9.30 out of 12
Air Quality Not available.
Flu Activity Not available.
METAR KXNA 292153Z 23007KT 10SM SCT046 30/21 A2998 RMK AO2 SLP135 T03000206
Pressure 29.93 in
Visibility 10.0 miles
Clouds Scattered Clouds 4600 ft
Heat Index 90 °F
Dew Point 71 °F
Humidity 63%
Rainfall 0.00 in
Snow Depth Not available.
UV 3 out of 12
Pollen 9.30 out of 12
Air Quality Not available.
Flu Activity Not available.
METAR KXNA 292153Z 23007KT 10SM SCT046 30/21 A2998 RMK AO2 SLP135 T03000206

10-Day Weather Forecast

×

Almanac

Astronomy

Aug. 29, 2015 Rise Set
Actual Time
Civil Twilight
Nautical Twilight
Astronomical Twilight
Moon
Length of Visible Light
Length of Day
Tomorrow will be .
, % of the Moon is Illuminated

Today's Extremes

State Highs State Lows

Community

WunderPhotos

Upload Photos

1,850,787 photos uploaded!

WunderBlogs® & News

Nearby

Air Quality

  Air Quality AQ Index Pollutant
Not available.

Snow Depth

Station Depth Elevation

Earthquake Activity

City Distance Mag. Time & Date
Minimum magnitude displayed is 2.5.

Coastal Water Temperatures

Place Temperature

Stations

Nearby Weather Stations

Station Location Temp. Windchill Dew Point Humidity Wind Precip. Elev Updated Type